Time;durP1;ratioP1;P1;durP2;ratioP2;P2;SDS_P1;SDS_P2;PMS_P1;PMS_P2;Temp;Humidity;BMP_temperature;BMP_pressure;BME280_temperature;BME280_humidity;BME280_pressure;Samples;Min_cycle;Max_cycle;Signal;HPM_P1;HPM_P2
2023/12/06 00:02:55;;;;;;;19.15;11.70;;;;;;;;;;10420342;28;20280;-76
2023/12/06 00:07:57;;;;;;;30.30;12.05;;;;;;;;;;10423225;28;20272;-76
2023/12/06 00:12:59;;;;;;;19.67;10.95;;;;;;;;;;10420799;28;20221;-77
2023/12/06 00:18:00;;;;;;;20.85;10.32;;;;;;;;;;10407296;28;20213;-76
2023/12/06 00:23:01;;;;;;;22.23;11.20;;;;;;;;;;10421435;28;20215;-76
2023/12/06 00:28:02;;;;;;;22.90;11.98;;;;;;;;;;10425272;28;20235;-76
2023/12/06 00:33:03;;;;;;;21.67;11.80;;;;;;;;;;10415415;28;20214;-77
2023/12/06 00:38:04;;;;;;;20.15;10.50;;;;;;;;;;10426803;28;20215;-76
2023/12/06 00:43:05;;;;;;;21.08;10.88;;;;;;;;;;10427028;28;20907;-76
2023/12/06 00:48:06;;;;;;;24.55;11.27;;;;;;;;;;10429418;28;20649;-76
2023/12/06 00:53:07;;;;;;;21.00;11.00;;;;;;;;;;10431469;28;20218;-77
2023/12/06 00:58:08;;;;;;;19.40;10.27;;;;;;;;;;10396422;28;20215;-76
2023/12/06 01:03:09;;;;;;;27.60;12.13;;;;;;;;;;10424097;28;20350;-76
2023/12/06 01:08:10;;;;;;;16.33;10.15;;;;;;;;;;10393125;28;20215;-76
2023/12/06 01:13:11;;;;;;;20.58;11.23;;;;;;;;;;10410127;28;20206;-76
2023/12/06 01:18:13;;;;;;;22.83;10.57;;;;;;;;;;10413008;28;20207;-76
2023/12/06 01:23:14;;;;;;;22.23;12.27;;;;;;;;;;10422902;28;20214;-76
2023/12/06 01:28:15;;;;;;;17.63;10.90;;;;;;;;;;10420902;28;20223;-77
2023/12/06 01:33:16;;;;;;;21.42;11.13;;;;;;;;;;10437803;28;20218;-73
2023/12/06 01:38:17;;;;;;;21.27;10.40;;;;;;;;;;10424626;28;20245;-76
2023/12/06 01:43:18;;;;;;;17.80;10.35;;;;;;;;;;10427179;28;20810;-76
2023/12/06 01:48:19;;;;;;;20.95;12.75;;;;;;;;;;10417114;28;20227;-74
2023/12/06 01:53:20;;;;;;;18.38;11.00;;;;;;;;;;10424079;28;20207;-76
2023/12/06 01:58:22;;;;;;;26.80;12.45;;;;;;;;;;10412261;28;20218;-74
2023/12/06 02:03:23;;;;;;;20.25;11.13;;;;;;;;;;10423546;28;20226;-74
2023/12/06 02:08:24;;;;;;;17.40;10.52;;;;;;;;;;10396365;28;20269;-74
2023/12/06 02:13:26;;;;;;;22.70;11.73;;;;;;;;;;10421683;28;20210;-72
2023/12/06 02:18:28;;;;;;;22.02;12.05;;;;;;;;;;10422428;28;20254;-75
2023/12/06 02:23:31;;;;;;;28.15;12.48;;;;;;;;;;10445127;28;20279;-75
2023/12/06 02:28:32;;;;;;;24.35;11.43;;;;;;;;;;10425277;28;20326;-75
2023/12/06 02:33:33;;;;;;;23.77;12.38;;;;;;;;;;10427440;28;20225;-76
2023/12/06 02:38:35;;;;;;;22.38;12.55;;;;;;;;;;10423981;28;20337;-74
2023/12/06 02:43:36;;;;;;;21.95;12.00;;;;;;;;;;10426023;28;20214;-76
2023/12/06 02:48:37;;;;;;;28.90;12.38;;;;;;;;;;10428749;28;20225;-74
2023/12/06 02:53:38;;;;;;;27.08;11.93;;;;;;;;;;10430028;28;21409;-74
2023/12/06 02:58:39;;;;;;;22.33;12.20;;;;;;;;;;10410098;28;20210;-77
2023/12/06 03:03:40;;;;;;;28.55;12.88;;;;;;;;;;10405330;28;20226;-75
2023/12/06 03:08:41;;;;;;;24.00;12.38;;;;;;;;;;10404546;28;20222;-75
2023/12/06 03:13:42;;;;;;;25.00;11.90;;;;;;;;;;10395745;28;20246;-74
2023/12/06 03:18:43;;;;;;;29.38;13.27;;;;;;;;;;10447892;28;20619;-76
2023/12/06 03:23:44;;;;;;;24.95;12.73;;;;;;;;;;10422299;28;20268;-76
2023/12/06 03:28:45;;;;;;;25.00;12.55;;;;;;;;;;10422330;28;20610;-75
2023/12/06 03:33:46;;;;;;;25.80;12.25;;;;;;;;;;10426852;28;20218;-76
2023/12/06 03:38:47;;;;;;;20.40;11.35;;;;;;;;;;10416840;28;20222;-75
2023/12/06 03:43:48;;;;;;;24.85;12.68;;;;;;;;;;10418756;28;20221;-75
2023/12/06 03:48:49;;;;;;;25.58;12.10;;;;;;;;;;10423466;28;20218;-74
2023/12/06 03:53:50;;;;;;;24.17;11.73;;;;;;;;;;10401660;28;20210;-76
2023/12/06 03:58:51;;;;;;;25.50;12.10;;;;;;;;;;10385919;28;20238;-75
2023/12/06 04:03:52;;;;;;;25.38;12.90;;;;;;;;;;10406049;28;20257;-76
2023/12/06 04:08:53;;;;;;;23.55;12.10;;;;;;;;;;10418636;28;20227;-76
2023/12/06 04:13:54;;;;;;;24.90;12.80;;;;;;;;;;10419006;28;20213;-75
2023/12/06 04:18:56;;;;;;;26.05;12.20;;;;;;;;;;10423484;28;20348;-76
2023/12/06 04:23:57;;;;;;;21.95;11.68;;;;;;;;;;10418454;28;20700;-75
2023/12/06 04:28:58;;;;;;;23.17;10.70;;;;;;;;;;10401451;28;20218;-76
2023/12/06 04:33:59;;;;;;;23.88;12.30;;;;;;;;;;10421044;28;20282;-75
2023/12/06 04:39:00;;;;;;;22.15;11.07;;;;;;;;;;10425064;28;20211;-75
2023/12/06 04:44:01;;;;;;;19.27;10.73;;;;;;;;;;10420265;28;20234;-75
2023/12/06 04:49:02;;;;;;;19.65;11.23;;;;;;;;;;10416502;28;20215;-74
2023/12/06 04:54:03;;;;;;;18.80;10.90;;;;;;;;;;10416115;28;20210;-75
2023/12/06 04:59:05;;;;;;;20.25;10.43;;;;;;;;;;10415115;28;20246;-75
2023/12/06 05:04:06;;;;;;;18.20;10.55;;;;;;;;;;10411333;28;20238;-75
2023/12/06 05:09:07;;;;;;;25.48;11.50;;;;;;;;;;10396388;28;20215;-75
2023/12/06 05:14:08;;;;;;;18.17;10.55;;;;;;;;;;10411808;28;20282;-74
2023/12/06 05:19:09;;;;;;;20.77;10.70;;;;;;;;;;10412974;28;20218;-78
2023/12/06 05:24:11;;;;;;;21.33;10.43;;;;;;;;;;10404273;28;20741;-77
2023/12/06 05:29:12;;;;;;;21.77;10.68;;;;;;;;;;10416127;28;20219;-77
2023/12/06 05:34:13;;;;;;;19.13;11.27;;;;;;;;;;10406707;28;20215;-77
2023/12/06 05:39:14;;;;;;;20.02;12.18;;;;;;;;;;10405650;28;20591;-77
2023/12/06 05:44:16;;;;;;;23.45;11.35;;;;;;;;;;10373974;28;20684;-77
2023/12/06 05:49:17;;;;;;;19.77;10.85;;;;;;;;;;10396974;28;20242;-77
2023/12/06 05:54:18;;;;;;;19.75;10.55;;;;;;;;;;10383719;28;20326;-75
2023/12/06 05:59:19;;;;;;;22.85;11.13;;;;;;;;;;10430845;28;20212;-77
2023/12/06 06:04:20;;;;;;;22.02;10.18;;;;;;;;;;10407220;28;20253;-74
2023/12/06 06:09:21;;;;;;;19.73;10.77;;;;;;;;;;10394754;28;21013;-77
2023/12/06 06:14:22;;;;;;;22.50;11.23;;;;;;;;;;10363871;28;20227;-77
2023/12/06 06:19:23;;;;;;;19.90;11.07;;;;;;;;;;10374780;28;20223;-78
2023/12/06 06:24:24;;;;;;;20.13;10.68;;;;;;;;;;10438475;28;20305;-77
2023/12/06 06:29:25;;;;;;;22.63;11.20;;;;;;;;;;10408665;28;20241;-77
2023/12/06 06:34:26;;;;;;;20.65;10.60;;;;;;;;;;10410912;28;21072;-76
2023/12/06 06:39:28;;;;;;;20.45;10.82;;;;;;;;;;10403141;28;20233;-78
2023/12/06 06:44:30;;;;;;;21.80;10.82;;;;;;;;;;10374054;28;20223;-75
2023/12/06 06:49:31;;;;;;;18.77;11.30;;;;;;;;;;10410631;28;20219;-77
2023/12/06 06:54:32;;;;;;;20.73;10.98;;;;;;;;;;10417341;28;20807;-77
2023/12/06 06:59:33;;;;;;;18.25;10.60;;;;;;;;;;10412731;28;20221;-76
2023/12/06 07:04:34;;;;;;;23.80;12.07;;;;;;;;;;10373675;28;20233;-77
2023/12/06 07:09:35;;;;;;;20.23;11.05;;;;;;;;;;10430296;28;20218;-75
2023/12/06 07:14:36;;;;;;;26.48;12.25;;;;;;;;;;10417126;28;20616;-75
2023/12/06 07:19:37;;;;;;;19.00;10.68;;;;;;;;;;10387199;28;20223;-75
2023/12/06 07:24:38;;;;;;;25.23;12.13;;;;;;;;;;10419141;28;20218;-75
2023/12/06 07:29:40;;;;;;;25.50;11.32;;;;;;;;;;10403770;28;20215;-75
2023/12/06 07:34:41;;;;;;;24.15;11.70;;;;;;;;;;10430673;28;20219;-78
2023/12/06 07:39:42;;;;;;;17.70;11.55;;;;;;;;;;10388835;28;20714;-76
2023/12/06 07:44:44;;;;;;;20.73;11.25;;;;;;;;;;10405100;28;20237;-76
2023/12/06 07:49:45;;;;;;;22.17;10.55;;;;;;;;;;10429164;28;20217;-76
2023/12/06 07:54:46;;;;;;;19.65;10.98;;;;;;;;;;10409577;28;20211;-75
2023/12/06 07:59:47;;;;;;;20.05;11.10;;;;;;;;;;10413635;28;20226;-75
2023/12/06 08:04:48;;;;;;;17.83;11.30;;;;;;;;;;10409765;28;20245;-75
2023/12/06 08:09:52;;;;;;;19.75;11.45;;;;;;;;;;10409294;28;20230;-76
2023/12/06 08:14:53;;;;;;;23.55;11.93;;;;;;;;;;10355214;28;20208;-76
2023/12/06 08:19:54;;;;;;;26.60;11.43;;;;;;;;;;10378902;28;20215;-75
2023/12/06 08:24:57;;;;;;;15.52;10.05;;;;;;;;;;10409477;28;20211;-76
2023/12/06 08:29:58;;;;;;;20.30;10.57;;;;;;;;;;10407573;28;20245;-75
2023/12/06 08:35:01;;;;;;;19.05;10.57;;;;;;;;;;10414171;28;20204;-75
2023/12/06 08:40:02;;;;;;;19.40;10.43;;;;;;;;;;10374845;28;20223;-74
2023/12/06 08:45:04;;;;;;;17.40;9.80;;;;;;;;;;10374756;28;20219;-74
2023/12/06 08:50:05;;;;;;;20.63;10.25;;;;;;;;;;10411998;28;20244;-75
2023/12/06 08:55:06;;;;;;;15.63;9.40;;;;;;;;;;10423475;28;20899;-74
2023/12/06 09:00:11;;;;;;;14.38;7.68;;;;;;;;;;10402006;28;20226;-74
2023/12/06 09:05:13;;;;;;;9.07;6.95;;;;;;;;;;10406879;28;20233;-79
2023/12/06 09:10:14;;;;;;;10.23;7.07;;;;;;;;;;10413285;28;20217;-76
2023/12/06 09:15:16;;;;;;;10.70;7.00;;;;;;;;;;10419373;28;20262;-77
2023/12/06 09:20:17;;;;;;;14.30;7.35;;;;;;;;;;10412206;28;20203;-79
2023/12/06 09:25:18;;;;;;;12.00;7.38;;;;;;;;;;10405544;28;20195;-77
2023/12/06 09:30:19;;;;;;;13.25;7.18;;;;;;;;;;10396483;28;20214;-77
2023/12/06 09:35:20;;;;;;;10.88;7.15;;;;;;;;;;10391573;28;20669;-77
2023/12/06 09:40:22;;;;;;;11.07;5.88;;;;;;;;;;10408002;28;20207;-77
2023/12/06 09:45:24;;;;;;;11.18;6.60;;;;;;;;;;10404756;28;20217;-75
2023/12/06 09:50:25;;;;;;;11.15;6.55;;;;;;;;;;10405265;28;20833;-74
2023/12/06 09:55:28;;;;;;;12.52;7.03;;;;;;;;;;10419605;28;20218;-74
2023/12/06 10:00:29;;;;;;;8.65;6.15;;;;;;;;;;10402027;28;20356;-74
2023/12/06 10:05:30;;;;;;;7.40;5.28;;;;;;;;;;10398461;28;20601;-74
2023/12/06 10:10:31;;;;;;;10.27;4.80;;;;;;;;;;10397943;28;20346;-74
2023/12/06 10:15:38;;;;;;;7.70;4.57;;;;;;;;;;10388223;28;21019;-74
2023/12/06 10:20:39;;;;;;;9.05;5.28;;;;;;;;;;10412970;28;20301;-75
2023/12/06 10:25:41;;;;;;;6.03;4.47;;;;;;;;;;10424065;28;20248;-75
2023/12/06 10:30:42;;;;;;;9.98;5.55;;;;;;;;;;10420592;28;20322;-74
2023/12/06 10:35:43;;;;;;;10.45;5.18;;;;;;;;;;10410986;28;20206;-74
2023/12/06 10:40:44;;;;;;;9.20;5.30;;;;;;;;;;10411753;28;20223;-75
2023/12/06 10:45:46;;;;;;;9.45;5.65;;;;;;;;;;10419057;28;20215;-77
2023/12/06 10:50:48;;;;;;;7.72;5.30;;;;;;;;;;10420050;28;20601;-73
2023/12/06 10:55:49;;;;;;;11.07;5.70;;;;;;;;;;10390050;28;20219;-74
2023/12/06 11:00:50;;;;;;;6.90;5.05;;;;;;;;;;10371177;28;20250;-74
2023/12/06 11:05:53;;;;;;;8.68;4.75;;;;;;;;;;10379954;28;20232;-73
2023/12/06 11:11:07;;;;;;;9.40;5.93;;;;;;;;;;10383700;28;20307;-74
2023/12/06 11:16:08;;;;;;;8.25;5.47;;;;;;;;;;10382826;28;20212;-75
2023/12/06 11:21:10;;;;;;;7.97;5.60;;;;;;;;;;10384564;28;20808;-75
2023/12/06 11:26:11;;;;;;;9.40;6.47;;;;;;;;;;10362785;28;20306;-75
2023/12/06 11:31:13;;;;;;;9.93;5.55;;;;;;;;;;10377498;28;20216;-74
2023/12/06 11:36:18;;;;;;;8.43;5.78;;;;;;;;;;10374857;28;20701;-75
2023/12/06 11:41:21;;;;;;;10.35;6.20;;;;;;;;;;10381891;28;20321;-75
2023/12/06 11:46:23;;;;;;;6.70;5.15;;;;;;;;;;10366582;28;20218;-76
2023/12/06 11:51:25;;;;;;;9.02;5.97;;;;;;;;;;10383046;28;20620;-75
2023/12/06 11:56:26;;;;;;;9.98;6.25;;;;;;;;;;10361089;28;20216;-74
2023/12/06 12:01:28;;;;;;;9.40;6.32;;;;;;;;;;10382007;28;20960;-75
2023/12/06 12:06:32;;;;;;;8.48;5.85;;;;;;;;;;10370823;28;20231;-76
2023/12/06 12:11:33;;;;;;;11.63;7.00;;;;;;;;;;10361236;28;20841;-74
2023/12/06 12:16:34;;;;;;;10.18;5.60;;;;;;;;;;10375974;28;20216;-75
2023/12/06 12:21:35;;;;;;;9.00;6.55;;;;;;;;;;10370986;28;20227;-74
2023/12/06 12:26:39;;;;;;;8.82;5.93;;;;;;;;;;10378314;28;20256;-75
2023/12/06 12:31:40;;;;;;;9.30;5.43;;;;;;;;;;10370623;28;20226;-74
2023/12/06 12:36:41;;;;;;;10.23;6.28;;;;;;;;;;10399444;28;20221;-76
2023/12/06 12:41:42;;;;;;;11.50;6.80;;;;;;;;;;10403606;28;20211;-75
2023/12/06 12:46:44;;;;;;;8.50;6.30;;;;;;;;;;10417265;28;20278;-74
2023/12/06 12:51:45;;;;;;;9.80;6.75;;;;;;;;;;10395539;28;20278;-74
2023/12/06 12:56:46;;;;;;;10.88;6.15;;;;;;;;;;10397426;28;20206;-74
2023/12/06 13:01:47;;;;;;;7.93;6.05;;;;;;;;;;10415176;28;20397;-74
2023/12/06 13:06:49;;;;;;;10.07;6.97;;;;;;;;;;10421227;28;20253;-74
2023/12/06 13:11:50;;;;;;;12.35;7.47;;;;;;;;;;10420197;28;20309;-74
2023/12/06 13:16:51;;;;;;;7.07;6.38;;;;;;;;;;10410681;28;20600;-74
2023/12/06 13:21:52;;;;;;;8.27;6.35;;;;;;;;;;10398812;28;20760;-74
2023/12/06 13:26:53;;;;;;;10.02;7.05;;;;;;;;;;10406184;28;20685;-74
2023/12/06 13:31:54;;;;;;;8.40;5.72;;;;;;;;;;10387219;28;20245;-74
2023/12/06 13:36:55;;;;;;;6.68;5.55;;;;;;;;;;10426368;28;20221;-74
2023/12/06 13:41:56;;;;;;;7.55;5.28;;;;;;;;;;10389111;28;20219;-78
2023/12/06 13:46:57;;;;;;;8.30;5.30;;;;;;;;;;10428252;28;20213;-75
2023/12/06 13:51:59;;;;;;;7.53;5.85;;;;;;;;;;10397507;28;20263;-75
2023/12/06 13:57:01;;;;;;;9.10;5.90;;;;;;;;;;10380631;28;20234;-75
2023/12/06 14:02:02;;;;;;;9.65;6.45;;;;;;;;;;10403980;28;20225;-75
2023/12/06 14:07:03;;;;;;;11.40;6.90;;;;;;;;;;10409475;28;20701;-76
2023/12/06 14:12:05;;;;;;;8.65;5.93;;;;;;;;;;10426118;28;20756;-74
2023/12/06 14:17:06;;;;;;;9.18;6.60;;;;;;;;;;10414584;28;20594;-73
2023/12/06 14:22:07;;;;;;;11.30;5.93;;;;;;;;;;10429657;28;20206;-74
2023/12/06 14:27:08;;;;;;;10.57;6.75;;;;;;;;;;10431298;28;20206;-74
2023/12/06 14:32:09;;;;;;;11.13;6.75;;;;;;;;;;10429566;28;20215;-74
2023/12/06 14:37:10;;;;;;;10.52;6.93;;;;;;;;;;10410730;28;20641;-75
2023/12/06 14:42:11;;;;;;;8.52;6.18;;;;;;;;;;10412506;28;20619;-75
2023/12/06 14:47:12;;;;;;;9.35;6.60;;;;;;;;;;10421535;28;20210;-74
2023/12/06 14:52:13;;;;;;;10.30;6.15;;;;;;;;;;10408017;28;20211;-77
2023/12/06 14:57:14;;;;;;;9.80;6.40;;;;;;;;;;10391069;28;20213;-76
2023/12/06 15:02:15;;;;;;;10.85;6.38;;;;;;;;;;10418547;28;20224;-78
2023/12/06 15:07:16;;;;;;;9.75;6.28;;;;;;;;;;10429914;28;20246;-76
2023/12/06 15:12:17;;;;;;;11.07;6.90;;;;;;;;;;10426714;28;20222;-77
2023/12/06 15:17:19;;;;;;;12.05;7.30;;;;;;;;;;10415443;28;20207;-77
2023/12/06 15:22:20;;;;;;;9.50;6.40;;;;;;;;;;10405299;28;20569;-76
2023/12/06 15:27:20;;;;;;;9.98;6.10;;;;;;;;;;10425681;28;20218;-77
2023/12/06 15:32:22;;;;;;;9.15;6.07;;;;;;;;;;10418624;28;20219;-77
2023/12/06 15:37:23;;;;;;;9.35;6.45;;;;;;;;;;10394562;28;20235;-76
2023/12/06 15:42:24;;;;;;;10.48;6.78;;;;;;;;;;10363645;28;20757;-76
2023/12/06 15:47:25;;;;;;;7.72;6.18;;;;;;;;;;10378957;28;20212;-77
2023/12/06 15:52:26;;;;;;;10.88;6.60;;;;;;;;;;10391048;28;20977;-77
2023/12/06 15:57:27;;;;;;;8.30;6.03;;;;;;;;;;10387309;28;20299;-75
2023/12/06 16:02:28;;;;;;;10.10;6.57;;;;;;;;;;10376384;28;21702;-79
2023/12/06 16:07:29;;;;;;;9.13;6.03;;;;;;;;;;10381712;28;20211;-77
2023/12/06 16:12:30;;;;;;;8.80;6.55;;;;;;;;;;10379846;28;20215;-78
2023/12/06 16:17:35;;;;;;;11.07;6.57;;;;;;;;;;10368906;28;20321;-77
2023/12/06 16:22:37;;;;;;;10.57;6.78;;;;;;;;;;10385768;28;20220;-78
2023/12/06 16:27:38;;;;;;;8.82;5.93;;;;;;;;;;10381503;28;20223;-77
2023/12/06 16:32:39;;;;;;;11.93;7.07;;;;;;;;;;10378425;28;20792;-75
2023/12/06 16:37:40;;;;;;;9.63;7.40;;;;;;;;;;10386858;28;20222;-77
2023/12/06 16:42:41;;;;;;;9.00;6.57;;;;;;;;;;10391603;28;20223;-75
2023/12/06 16:47:42;;;;;;;9.70;6.47;;;;;;;;;;10379513;28;20220;-77
2023/12/06 16:52:43;;;;;;;8.32;6.47;;;;;;;;;;10402194;28;20223;-77
2023/12/06 16:58:09;;;;;;;10.75;6.55;;;;;;;;;;10408642;28;20206;-78
2023/12/06 17:03:10;;;;;;;10.30;6.82;;;;;;;;;;10415938;28;20229;-75
2023/12/06 17:08:11;;;;;;;9.02;6.55;;;;;;;;;;10413103;28;20207;-78
2023/12/06 17:13:12;;;;;;;10.80;7.10;;;;;;;;;;10435089;28;20340;-78
2023/12/06 17:18:14;;;;;;;13.60;7.60;;;;;;;;;;10438233;28;20249;-78
2023/12/06 17:23:16;;;;;;;12.45;7.38;;;;;;;;;;10429860;28;20234;-77
2023/12/06 17:28:19;;;;;;;10.30;7.35;;;;;;;;;;10453987;28;20272;-77
2023/12/06 17:33:20;;;;;;;10.55;8.18;;;;;;;;;;10417675;28;20215;-77
2023/12/06 17:38:21;;;;;;;16.52;8.05;;;;;;;;;;10425856;28;20241;-77
2023/12/06 17:43:22;;;;;;;12.23;7.75;;;;;;;;;;10393817;28;20689;-77
2023/12/06 17:48:23;;;;;;;9.43;6.68;;;;;;;;;;10366190;28;20216;-76
2023/12/06 17:53:24;;;;;;;13.35;7.30;;;;;;;;;;10396254;28;20275;-77
2023/12/06 17:58:25;;;;;;;11.20;7.40;;;;;;;;;;10399464;28;20817;-77
2023/12/06 18:03:26;;;;;;;12.73;8.13;;;;;;;;;;10390414;28;20264;-77
2023/12/06 18:08:28;;;;;;;13.95;8.32;;;;;;;;;;10384603;28;20245;-78
2023/12/06 18:13:30;;;;;;;16.38;8.32;;;;;;;;;;10362836;28;20215;-77
2023/12/06 18:18:30;;;;;;;12.82;8.13;;;;;;;;;;10386996;28;20217;-77
2023/12/06 18:23:31;;;;;;;19.40;12.13;;;;;;;;;;10374138;28;20637;-77
2023/12/06 18:28:33;;;;;;;19.55;11.55;;;;;;;;;;10358906;28;20265;-76
2023/12/06 18:33:34;;;;;;;14.30;9.75;;;;;;;;;;10374938;28;20719;-77
2023/12/06 18:38:35;;;;;;;12.90;8.23;;;;;;;;;;10362862;28;20212;-78
2023/12/06 18:43:36;;;;;;;14.77;9.38;;;;;;;;;;10386174;28;20325;-77
2023/12/06 18:48:37;;;;;;;18.73;10.68;;;;;;;;;;10390056;28;20222;-77
2023/12/06 18:53:38;;;;;;;15.55;9.45;;;;;;;;;;10362476;28;20220;-77
2023/12/06 18:58:39;;;;;;;15.05;9.02;;;;;;;;;;10388101;28;21106;-77
2023/12/06 19:03:42;;;;;;;14.02;9.73;;;;;;;;;;10414853;28;20231;-76
2023/12/06 19:08:44;;;;;;;11.35;7.72;;;;;;;;;;10428445;28;20301;-77
2023/12/06 19:13:45;;;;;;;14.43;8.68;;;;;;;;;;10405618;28;20247;-76
2023/12/06 19:18:46;;;;;;;12.20;6.80;;;;;;;;;;10388522;28;20221;-76
2023/12/06 19:23:47;;;;;;;12.25;7.75;;;;;;;;;;10363179;28;20227;-76
2023/12/06 19:28:48;;;;;;;12.15;8.50;;;;;;;;;;10399499;28;20983;-76
2023/12/06 19:33:51;;;;;;;15.60;9.02;;;;;;;;;;10426195;28;20214;-76
2023/12/06 19:38:52;;;;;;;10.70;7.22;;;;;;;;;;10418756;28;20215;-74
2023/12/06 19:43:53;;;;;;;9.95;7.78;;;;;;;;;;10420359;28;20616;-76
2023/12/06 19:48:54;;;;;;;8.98;7.30;;;;;;;;;;10423459;28;20230;-75
2023/12/06 19:53:55;;;;;;;10.57;7.97;;;;;;;;;;10403496;28;20323;-75
2023/12/06 19:58:56;;;;;;;13.30;7.82;;;;;;;;;;10416930;28;20721;-74
2023/12/06 20:03:57;;;;;;;12.05;7.70;;;;;;;;;;10424856;28;20239;-75
2023/12/06 20:08:58;;;;;;;11.20;7.70;;;;;;;;;;10423910;28;20344;-76
2023/12/06 20:13:59;;;;;;;15.32;8.65;;;;;;;;;;10420885;28;20243;-75
2023/12/06 20:19:00;;;;;;;11.25;7.60;;;;;;;;;;10420543;28;20209;-76
2023/12/06 20:24:01;;;;;;;25.52;11.75;;;;;;;;;;10425769;28;20608;-75
2023/12/06 20:29:03;;;;;;;17.75;9.70;;;;;;;;;;10419758;28;20215;-75
2023/12/06 20:34:04;;;;;;;13.60;7.30;;;;;;;;;;10425095;28;20239;-76
2023/12/06 20:39:05;;;;;;;10.00;6.53;;;;;;;;;;10387380;28;20262;-76
2023/12/06 20:44:06;;;;;;;15.23;7.72;;;;;;;;;;10419728;28;20726;-76
2023/12/06 20:49:08;;;;;;;12.88;8.60;;;;;;;;;;10417380;28;20211;-76
2023/12/06 20:54:09;;;;;;;13.00;8.80;;;;;;;;;;10438070;28;20206;-76
2023/12/06 20:59:10;;;;;;;13.48;8.13;;;;;;;;;;10444426;28;20404;-76
2023/12/06 21:04:11;;;;;;;14.18;9.10;;;;;;;;;;10426083;28;20292;-76
2023/12/06 21:09:15;;;;;;;13.90;8.43;;;;;;;;;;10416597;28;20256;-76
2023/12/06 21:14:16;;;;;;;12.18;7.22;;;;;;;;;;10405894;28;20210;-76
2023/12/06 21:19:17;;;;;;;14.15;8.23;;;;;;;;;;10386217;28;20223;-76
2023/12/06 21:24:23;;;;;;;10.30;7.38;;;;;;;;;;10420326;28;20215;-76
2023/12/06 21:29:24;;;;;;;12.63;8.45;;;;;;;;;;10425479;28;20705;-75
2023/12/06 21:34:25;;;;;;;11.10;7.65;;;;;;;;;;10432032;28;20704;-76
2023/12/06 21:39:26;;;;;;;11.00;6.70;;;;;;;;;;10430296;28;20211;-76
2023/12/06 21:44:28;;;;;;;10.50;7.45;;;;;;;;;;10427419;28;20223;-76
2023/12/06 21:49:29;;;;;;;12.27;7.65;;;;;;;;;;10415182;28;20230;-76
2023/12/06 21:54:30;;;;;;;11.63;7.88;;;;;;;;;;10388391;28;20246;-76
2023/12/06 21:59:31;;;;;;;16.35;8.23;;;;;;;;;;10439822;28;20719;-76
2023/12/06 22:04:33;;;;;;;12.52;8.40;;;;;;;;;;10417149;28;20289;-75
2023/12/06 22:09:34;;;;;;;12.45;7.55;;;;;;;;;;10425787;28;20245;-77
2023/12/06 22:14:35;;;;;;;12.70;7.65;;;;;;;;;;10426165;28;20219;-75
2023/12/06 22:19:37;;;;;;;13.77;8.90;;;;;;;;;;10430057;28;20647;-77
2023/12/06 22:24:38;;;;;;;12.90;8.40;;;;;;;;;;10426920;28;20222;-77
2023/12/06 22:29:39;;;;;;;12.55;8.30;;;;;;;;;;10412928;28;20225;-77
2023/12/06 22:34:40;;;;;;;12.88;8.48;;;;;;;;;;10432748;28;20218;-76
2023/12/06 22:39:41;;;;;;;12.93;8.10;;;;;;;;;;10427782;28;20223;-76
2023/12/06 22:44:42;;;;;;;14.73;8.70;;;;;;;;;;10421506;28;20223;-76
2023/12/06 22:49:43;;;;;;;14.32;9.00;;;;;;;;;;10435089;28;20288;-76
2023/12/06 22:54:44;;;;;;;16.95;9.82;;;;;;;;;;10437898;28;20219;-77
2023/12/06 22:59:46;;;;;;;14.18;9.48;;;;;;;;;;10409028;28;20219;-77
2023/12/06 23:04:47;;;;;;;16.75;10.15;;;;;;;;;;10433491;28;20234;-77
2023/12/06 23:09:48;;;;;;;14.90;9.88;;;;;;;;;;10428267;28;20246;-76
2023/12/06 23:14:49;;;;;;;18.60;11.00;;;;;;;;;;10424007;28;20702;-76
2023/12/06 23:19:50;;;;;;;21.90;11.00;;;;;;;;;;10424004;28;20210;-76
2023/12/06 23:24:51;;;;;;;14.75;10.20;;;;;;;;;;10424859;28;20793;-76
2023/12/06 23:29:52;;;;;;;15.52;9.63;;;;;;;;;;10430406;28;20238;-77
2023/12/06 23:34:53;;;;;;;17.90;10.40;;;;;;;;;;10434479;28;20679;-76
2023/12/06 23:39:54;;;;;;;18.60;11.52;;;;;;;;;;10404424;28;20366;-76
2023/12/06 23:44:55;;;;;;;17.95;10.32;;;;;;;;;;10425676;28;20756;-77
2023/12/06 23:49:57;;;;;;;18.48;10.00;;;;;;;;;;10431865;28;20221;-76
2023/12/06 23:54:57;;;;;;;20.90;11.95;;;;;;;;;;10430820;28;20225;-77
2023/12/06 23:59:58;;;;;;;19.13;10.90;;;;;;;;;;10439186;28;20256;-77
